Terminal Aerodrome Forecast
Issued by NWS Twin Cities, MN

Home | Current Version | Previous Version | Graphics & Text | Print | Product List | Glossary On
Versions: 1 2 3 4 5 6 7 8 9 10 11 12
755
FTUS43 KMPX 132337
TAFSTC
TAF
KSTC 132337Z 1400/1424 VRB03KT P6SM SKC
     FM140800 15005KT P6SM BKN200
     FM141100 16008KT P6SM BKN035 OVC150
     FM141400 16009KT 4SM -SHSN SCT025 OVC035
     FM141900 18011KT 3/4SM -SN BR VV006=

USA.gov is the U.S. government's official web portal to all federal, state and local government web resources and services.